CheckWX is a tool to help pilots better visualize weather data.  It is not intended as a substitute for an official pre-flight weather briefing.

09:45:42 UTC

KCKM METAR
Fletcher Field Airport
Clarksdale, Mississippi, USA
Current

31 mins ago

KCKM 280915Z AUTO 00000KT M1/4SM FG 05/05 A3003 RMK A01
Observed
Jan-28 @ 09:15 UTC
Visibility
1/4 SM
Conditions
Fog
Temperature
C / 41°F
Dewpoint
C / 41°F
Humidity
100%
Altimeter
30.03" Hg
Pressure
1016.92 hPa
Previous

51 mins ago

KCKM 280855Z AUTO 00000KT 1/4SM FG 05/05 A3003 RMK A01
Observed
Jan-28 @ 08:55 UTC
Visibility
1/4 SM
Conditions
Fog
Temperature
C / 41°F
Dewpoint
C / 41°F
Humidity
100%
Altimeter
30.03" Hg
Pressure
1016.92 hPa
Previous

1 hour ago

KCKM 280835Z AUTO 00000KT 2 1/2SM BR CLR 05/05 A3003 RMK A01
Observed
Jan-28 @ 08:35 UTC
Visibility
2 1/2 SM
Flight Rules
IFR
Conditions
Mist
Cloud Levels
  • Clear skies
Temperature
C / 41°F
Dewpoint
C / 41°F
Humidity
100%
Altimeter
30.03" Hg
Pressure
1016.92 hPa